sensor_id;sensor_type;location;lat;lon;timestamp;pressure;altitude;pressure_sealevel;temperature;humidity
12172;BME280;6149;52.418;13.668;2024-03-22T00:01:12;101687.19;;;7.56;100.00
12172;BME280;6149;52.418;13.668;2024-03-22T00:03:37;101675.75;;;7.57;100.00
12172;BME280;6149;52.418;13.668;2024-03-22T00:06:03;101672.28;;;7.57;100.00
12172;BME280;6149;52.418;13.668;2024-03-22T00:08:28;101662.63;;;7.56;100.00
12172;BME280;6149;52.418;13.668;2024-03-22T00:10:53;101663.56;;;7.53;100.00
12172;BME280;6149;52.418;13.668;2024-03-22T00:13:19;101660.94;;;7.53;100.00
12172;BME280;6149;52.418;13.668;2024-03-22T00:15:44;101662.72;;;7.53;100.00
12172;BME280;6149;52.418;13.668;2024-03-22T00:18:10;101661.88;;;7.51;100.00
12172;BME280;6149;52.418;13.668;2024-03-22T00:20:36;101646.06;;;7.52;100.00
12172;BME280;6149;52.418;13.668;2024-03-22T00:23:01;101650.53;;;7.49;100.00
12172;BME280;6149;52.418;13.668;2024-03-22T00:25:27;101652.28;;;7.48;100.00
12172;BME280;6149;52.418;13.668;2024-03-22T00:27:52;101642.66;;;7.47;100.00
12172;BME280;6149;52.418;13.668;2024-03-22T00:30:18;101633.06;;;7.45;100.00
12172;BME280;6149;52.418;13.668;2024-03-22T00:32:44;101633.19;;;7.42;100.00
12172;BME280;6149;52.418;13.668;2024-03-22T00:35:10;101634.97;;;7.40;100.00
12172;BME280;6149;52.418;13.668;2024-03-22T00:37:35;101629.75;;;7.38;100.00
12172;BME280;6149;52.418;13.668;2024-03-22T00:40:01;101624.53;;;7.36;100.00
12172;BME280;6149;52.418;13.668;2024-03-22T00:42:27;101622.72;;;7.38;100.00
12172;BME280;6149;52.418;13.668;2024-03-22T00:44:52;101623.59;;;7.39;100.00
12172;BME280;6149;52.418;13.668;2024-03-22T00:47:17;101625.34;;;7.38;100.00
12172;BME280;6149;52.418;13.668;2024-03-22T00:49:43;101620.97;;;7.39;100.00
12172;BME280;6149;52.418;13.668;2024-03-22T00:52:09;101614.78;;;7.40;100.00
12172;BME280;6149;52.418;13.668;2024-03-22T00:54:34;101619.19;;;7.40;100.00
12172;BME280;6149;52.418;13.668;2024-03-22T00:56:59;101619.16;;;7.41;100.00
12172;BME280;6149;52.418;13.668;2024-03-22T00:59:24;101614.66;;;7.45;100.00
12172;BME280;6149;52.418;13.668;2024-03-22T01:01:50;101617.38;;;7.42;100.00
12172;BME280;6149;52.418;13.668;2024-03-22T01:04:15;101618.28;;;7.41;100.00
12172;BME280;6149;52.418;13.668;2024-03-22T01:06:40;101616.59;;;7.38;100.00
12172;BME280;6149;52.418;13.668;2024-03-22T01:09:06;101612.31;;;7.34;100.00
12172;BME280;6149;52.418;13.668;2024-03-22T01:11:32;101601.78;;;7.34;100.00
12172;BME280;6149;52.418;13.668;2024-03-22T01:13:58;101601.66;;;7.38;100.00
12172;BME280;6149;52.418;13.668;2024-03-22T01:16:23;101599.84;;;7.42;100.00
12172;BME280;6149;52.418;13.668;2024-03-22T01:18:48;101607.88;;;7.36;100.00
12172;BME280;6149;52.418;13.668;2024-03-22T01:21:14;101599.06;;;7.37;100.00
12172;BME280;6149;52.418;13.668;2024-03-22T01:23:39;101593.78;;;7.38;100.00
12172;BME280;6149;52.418;13.668;2024-03-22T01:26:04;101591.19;;;7.37;100.00
12172;BME280;6149;52.418;13.668;2024-03-22T01:28:30;101583.28;;;7.37;100.00
12172;BME280;6149;52.418;13.668;2024-03-22T01:30:55;101578.03;;;7.37;100.00
12172;BME280;6149;52.418;13.668;2024-03-22T01:33:20;101577.16;;;7.36;100.00
12172;BME280;6149;52.418;13.668;2024-03-22T01:35:46;101571.91;;;7.36;100.00
12172;BME280;6149;52.418;13.668;2024-03-22T01:38:11;101578.09;;;7.34;100.00
12172;BME280;6149;52.418;13.668;2024-03-22T01:40:36;101578.13;;;7.32;100.00
12172;BME280;6149;52.418;13.668;2024-03-22T01:43:02;101582.53;;;7.32;100.00
12172;BME280;6149;52.418;13.668;2024-03-22T01:45:31;101573.78;;;7.31;100.00
12172;BME280;6149;52.418;13.668;2024-03-22T01:47:57;101571.97;;;7.33;100.00
12172;BME280;6149;52.418;13.668;2024-03-22T01:50:24;101572.84;;;7.34;100.00
12172;BME280;6149;52.418;13.668;2024-03-22T01:52:50;101571.91;;;7.36;100.00
12172;BME280;6149;52.418;13.668;2024-03-22T01:55:16;101563.16;;;7.36;100.00
12172;BME280;6149;52.418;13.668;2024-03-22T01:57:41;101557.88;;;7.36;100.00
12172;BME280;6149;52.418;13.668;2024-03-22T02:00:07;101547.44;;;7.33;100.00
12172;BME280;6149;52.418;13.668;2024-03-22T02:02:34;101542.16;;;7.33;100.00
12172;BME280;6149;52.418;13.668;2024-03-22T02:05:11;101551.81;;;7.32;100.00
12172;BME280;6149;52.418;13.668;2024-03-22T02:07:37;101549.13;;;7.35;100.00
12172;BME280;6149;52.418;13.668;2024-03-22T02:10:03;101545.66;;;7.33;100.00
12172;BME280;6149;52.418;13.668;2024-03-22T02:12:29;101529.84;;;7.35;100.00
12172;BME280;6149;52.418;13.668;2024-03-22T02:14:57;101528.94;;;7.36;100.00
12172;BME280;6149;52.418;13.668;2024-03-22T02:17:23;101530.66;;;7.37;100.00
12172;BME280;6149;52.418;13.668;2024-03-22T02:19:48;101526.22;;;7.39;100.00
12172;BME280;6149;52.418;13.668;2024-03-22T02:22:13;101526.28;;;7.37;100.00
12172;BME280;6149;52.418;13.668;2024-03-22T02:24:39;101517.50;;;7.37;100.00
12172;BME280;6149;52.418;13.668;2024-03-22T02:27:04;101521.06;;;7.36;100.00
12172;BME280;6149;52.418;13.668;2024-03-22T02:29:29;101513.16;;;7.36;100.00
12172;BME280;6149;52.418;13.668;2024-03-22T02:31:54;101514.88;;;7.37;100.00
12172;BME280;6149;52.418;13.668;2024-03-22T02:34:20;101503.53;;;7.35;100.00
12172;BME280;6149;52.418;13.668;2024-03-22T02:36:45;101509.63;;;7.37;100.00
12172;BME280;6149;52.418;13.668;2024-03-22T02:39:11;101504.41;;;7.35;100.00
12172;BME280;6149;52.418;13.668;2024-03-22T02:41:36;101507.00;;;7.37;100.00
12172;BME280;6149;52.418;13.668;2024-03-22T02:44:01;101496.50;;;7.35;100.00
12172;BME280;6149;52.418;13.668;2024-03-22T02:46:27;101499.06;;;7.38;100.00
12172;BME280;6149;52.418;13.668;2024-03-22T02:48:53;101501.78;;;7.35;100.00
12172;BME280;6149;52.418;13.668;2024-03-22T02:51:18;101496.59;;;7.32;100.00
12172;BME280;6149;52.418;13.668;2024-03-22T02:53:43;101487.00;;;7.30;100.00
12172;BME280;6149;52.418;13.668;2024-03-22T02:56:09;101481.75;;;7.30;100.00
12172;BME280;6149;52.418;13.668;2024-03-22T02:58:34;101472.97;;;7.29;100.00
12172;BME280;6149;52.418;13.668;2024-03-22T03:01:01;101473.81;;;7.31;100.00
12172;BME280;6149;52.418;13.668;2024-03-22T03:03:28;101463.22;;;7.34;100.00
12172;BME280;6149;52.418;13.668;2024-03-22T03:05:54;101467.44;;;7.40;100.00
12172;BME280;6149;52.418;13.668;2024-03-22T03:08:19;101464.91;;;7.37;100.00
12172;BME280;6149;52.418;13.668;2024-03-22T03:10:44;101462.22;;;7.38;100.00
12172;BME280;6149;52.418;13.668;2024-03-22T03:13:10;101458.53;;;7.44;100.00
12172;BME280;6149;52.418;13.668;2024-03-22T03:15:36;101451.34;;;7.51;100.00
12172;BME280;6149;52.418;13.668;2024-03-22T03:18:01;101462.88;;;7.47;100.00
12172;BME280;6149;52.418;13.668;2024-03-22T03:20:27;101450.75;;;7.41;100.00
12172;BME280;6149;52.418;13.668;2024-03-22T03:22:52;101441.25;;;7.35;100.00
12172;BME280;6149;52.418;13.668;2024-03-22T03:25:17;101448.22;;;7.38;100.00
12172;BME280;6149;52.418;13.668;2024-03-22T03:27:43;101440.44;;;7.33;100.00
12172;BME280;6149;52.418;13.668;2024-03-22T03:30:08;101436.03;;;7.34;100.00
12172;BME280;6149;52.418;13.668;2024-03-22T03:32:34;101431.28;;;7.47;100.00
12172;BME280;6149;52.418;13.668;2024-03-22T03:34:59;101432.41;;;7.38;100.00
12172;BME280;6149;52.418;13.668;2024-03-22T03:37:24;101423.72;;;7.36;100.00
12172;BME280;6149;52.418;13.668;2024-03-22T03:39:50;101420.25;;;7.34;100.00
12172;BME280;6149;52.418;13.668;2024-03-22T03:42:15;101414.13;;;7.33;100.00
12172;BME280;6149;52.418;13.668;2024-03-22T03:44:40;101406.19;;;7.35;100.00
12172;BME280;6149;52.418;13.668;2024-03-22T03:47:06;101403.47;;;7.38;100.00
12172;BME280;6149;52.418;13.668;2024-03-22T03:49:32;101398.34;;;7.33;100.00
12172;BME280;6149;52.418;13.668;2024-03-22T03:51:57;101396.53;;;7.35;100.00
12172;BME280;6149;52.418;13.668;2024-03-22T03:54:22;101390.31;;;7.38;100.00
12172;BME280;6149;52.418;13.668;2024-03-22T03:56:48;101392.19;;;7.34;100.00
12172;BME280;6149;52.418;13.668;2024-03-22T03:59:13;101392.22;;;7.33;100.00
12172;BME280;6149;52.418;13.668;2024-03-22T04:01:38;101387.94;;;7.29;100.00
12172;BME280;6149;52.418;13.668;2024-03-22T04:04:04;101383.53;;;7.29;100.00
12172;BME280;6149;52.418;13.668;2024-03-22T04:06:29;101389.72;;;7.28;100.00
12172;BME280;6149;52.418;13.668;2024-03-22T04:08:55;101391.47;;;7.28;100.00
12172;BME280;6149;52.418;13.668;2024-03-22T04:11:20;101379.09;;;7.31;100.00
12172;BME280;6149;52.418;13.668;2024-03-22T04:13:46;101374.78;;;7.29;100.00
12172;BME280;6149;52.418;13.668;2024-03-22T04:16:12;101371.34;;;7.27;100.00
12172;BME280;6149;52.418;13.668;2024-03-22T04:18:38;101377.50;;;7.26;100.00
12172;BME280;6149;52.418;13.668;2024-03-22T04:21:04;101373.94;;;7.28;100.00
12172;BME280;6149;52.418;13.668;2024-03-22T04:23:29;101372.28;;;7.24;100.00
12172;BME280;6149;52.418;13.668;2024-03-22T04:25:56;101362.69;;;7.22;100.00
12172;BME280;6149;52.418;13.668;2024-03-22T04:28:24;101353.91;;;7.23;100.00
12172;BME280;6149;52.418;13.668;2024-03-22T04:31:01;101339.94;;;7.21;100.00
12172;BME280;6149;52.418;13.668;2024-03-22T04:33:29;101348.56;;;7.26;100.00
12172;BME280;6149;52.418;13.668;2024-03-22T04:35:55;101353.03;;;7.22;100.00
12172;BME280;6149;52.418;13.668;2024-03-22T04:38:21;101347.69;;;7.25;100.00
12172;BME280;6149;52.418;13.668;2024-03-22T04:40:47;101346.75;;;7.28;100.00
12172;BME280;6149;52.418;13.668;2024-03-22T04:43:14;101348.53;;;7.27;100.00
12172;BME280;6149;52.418;13.668;2024-03-22T04:45:42;101343.22;;;7.29;100.00
12172;BME280;6149;52.418;13.668;2024-03-22T04:48:08;101338.88;;;7.28;100.00
12172;BME280;6149;52.418;13.668;2024-03-22T04:50:33;101324.88;;;7.26;100.00
12172;BME280;6149;52.418;13.668;2024-03-22T04:52:59;101326.75;;;7.22;100.00
12172;BME280;6149;52.418;13.668;2024-03-22T04:55:24;101318.00;;;7.22;100.00
12172;BME280;6149;52.418;13.668;2024-03-22T04:57:51;101318.75;;;7.25;100.00
12172;BME280;6149;52.418;13.668;2024-03-22T05:00:17;101323.00;;;7.31;100.00
12172;BME280;6149;52.418;13.668;2024-03-22T05:02:43;101316.09;;;7.27;100.00
12172;BME280;6149;52.418;13.668;2024-03-22T05:05:08;101309.03;;;7.29;100.00
12172;BME280;6149;52.418;13.668;2024-03-22T05:07:36;101304.72;;;7.26;100.00
12172;BME280;6149;52.418;13.668;2024-03-22T05:10:02;101301.13;;;7.29;100.00
12172;BME280;6149;52.418;13.668;2024-03-22T05:12:28;101305.31;;;7.36;100.00
12172;BME280;6149;52.418;13.668;2024-03-22T05:14:54;101310.50;;;7.39;100.00
12172;BME280;6149;52.418;13.668;2024-03-22T05:17:20;101297.44;;;7.36;100.00
12172;BME280;6149;52.418;13.668;2024-03-22T05:19:45;101306.22;;;7.35;100.00
12172;BME280;6149;52.418;13.668;2024-03-22T05:22:10;101305.19;;;7.41;100.00
12172;BME280;6149;52.418;13.668;2024-03-22T05:24:36;101292.91;;;7.41;100.00
12172;BME280;6149;52.418;13.668;2024-03-22T05:27:01;101301.50;;;7.46;100.00
12172;BME280;6149;52.418;13.668;2024-03-22T05:29:26;101295.41;;;7.44;100.00
12172;BME280;6149;52.418;13.668;2024-03-22T05:31:52;101288.38;;;7.45;100.00
12172;BME280;6149;52.418;13.668;2024-03-22T05:34:18;101288.28;;;7.48;100.00
12172;BME280;6149;52.418;13.668;2024-03-22T05:36:45;101281.09;;;7.54;100.00
12172;BME280;6149;52.418;13.668;2024-03-22T05:39:10;101275.03;;;7.51;100.00
12172;BME280;6149;52.418;13.668;2024-03-22T05:41:37;101275.97;;;7.50;100.00
12172;BME280;6149;52.418;13.668;2024-03-22T05:44:02;101277.72;;;7.49;100.00
12172;BME280;6149;52.418;13.668;2024-03-22T05:46:28;101263.53;;;7.55;100.00
12172;BME280;6149;52.418;13.668;2024-03-22T05:48:54;101264.44;;;7.54;100.00
12172;BME280;6149;52.418;13.668;2024-03-22T05:51:20;101274.00;;;7.56;100.00
12172;BME280;6149;52.418;13.668;2024-03-22T05:53:46;101269.50;;;7.60;100.00
12172;BME280;6149;52.418;13.668;2024-03-22T05:56:11;101271.28;;;7.59;100.00
12172;BME280;6149;52.418;13.668;2024-03-22T05:58:37;101279.28;;;7.84;100.00
12172;BME280;6149;52.418;13.668;2024-03-22T06:01:02;101277.88;;;7.74;100.00
12172;BME280;6149;52.418;13.668;2024-03-22T06:03:28;101270.84;;;7.75;100.00
12172;BME280;6149;52.418;13.668;2024-03-22T06:05:54;101265.56;;;7.75;100.00
12172;BME280;6149;52.418;13.668;2024-03-22T06:08:24;101257.66;;;7.75;100.00
12172;BME280;6149;52.418;13.668;2024-03-22T06:10:50;101250.50;;;7.80;100.00
12172;BME280;6149;52.418;13.668;2024-03-22T06:13:15;101239.97;;;7.80;100.00
12172;BME280;6149;52.418;13.668;2024-03-22T06:15:43;101246.81;;;7.84;100.00
12172;BME280;6149;52.418;13.668;2024-03-22T06:18:11;101243.25;;;7.86;100.00
12172;BME280;6149;52.418;13.668;2024-03-22T06:20:36;101248.31;;;7.92;100.00
12172;BME280;6149;52.418;13.668;2024-03-22T06:23:01;101241.84;;;8.02;100.00
12172;BME280;6149;52.418;13.668;2024-03-22T06:25:27;101238.06;;;8.11;100.00
12172;BME280;6149;52.418;13.668;2024-03-22T06:27:52;101238.06;;;8.11;100.00
12172;BME280;6149;52.418;13.668;2024-03-22T06:30:17;101244.91;;;8.17;100.00
12172;BME280;6149;52.418;13.668;2024-03-22T06:32:43;101243.00;;;8.20;100.00
12172;BME280;6149;52.418;13.668;2024-03-22T06:35:08;101235.88;;;8.24;100.00
12172;BME280;6149;52.418;13.668;2024-03-22T06:37:33;101237.44;;;8.29;100.00
12172;BME280;6149;52.418;13.668;2024-03-22T06:39:59;101228.66;;;8.29;100.00
12172;BME280;6149;52.418;13.668;2024-03-22T06:42:24;101219.84;;;8.30;100.00
12172;BME280;6149;52.418;13.668;2024-03-22T06:44:50;101223.31;;;8.32;100.00
12172;BME280;6149;52.418;13.668;2024-03-22T06:47:16;101221.47;;;8.35;100.00
12172;BME280;6149;52.418;13.668;2024-03-22T06:49:41;101219.47;;;8.42;100.00
12172;BME280;6149;52.418;13.668;2024-03-22T06:52:07;101221.06;;;8.48;100.00
12172;BME280;6149;52.418;13.668;2024-03-22T06:54:32;101221.06;;;8.48;100.00
12172;BME280;6149;52.418;13.668;2024-03-22T06:56:57;101228.03;;;8.49;100.00
12172;BME280;6149;52.418;13.668;2024-03-22T06:59:22;101218.41;;;8.48;100.00
12172;BME280;6149;52.418;13.668;2024-03-22T07:01:48;101222.53;;;8.55;100.00
12172;BME280;6149;52.418;13.668;2024-03-22T07:04:14;101217.09;;;8.59;100.00
12172;BME280;6149;52.418;13.668;2024-03-22T07:06:39;101216.19;;;8.60;100.00
12172;BME280;6149;52.418;13.668;2024-03-22T07:09:04;101211.47;;;8.70;100.00
12172;BME280;6149;52.418;13.668;2024-03-22T07:11:32;101207.81;;;8.74;100.00
12172;BME280;6149;52.418;13.668;2024-03-22T07:13:58;101204.31;;;8.74;100.00
12172;BME280;6149;52.418;13.668;2024-03-22T07:16:23;101207.75;;;8.76;100.00
12172;BME280;6149;52.418;13.668;2024-03-22T07:18:48;101204.78;;;8.85;100.00
12172;BME280;6149;52.418;13.668;2024-03-22T07:21:14;101201.84;;;8.92;100.00
12172;BME280;6149;52.418;13.668;2024-03-22T07:23:39;101204.63;;;8.89;100.00
12172;BME280;6149;52.418;13.668;2024-03-22T07:26:04;101204.38;;;8.95;100.00
12172;BME280;6149;52.418;13.668;2024-03-22T07:28:31;101191.88;;;9.00;100.00
12172;BME280;6149;52.418;13.668;2024-03-22T07:30:56;101186.59;;;9.00;100.00
12172;BME280;6149;52.418;13.668;2024-03-22T07:33:21;101190.84;;;9.04;100.00
12172;BME280;6149;52.418;13.668;2024-03-22T07:35:47;101197.91;;;9.27;100.00
12172;BME280;6149;52.418;13.668;2024-03-22T07:38:12;101192.00;;;9.21;100.00
12172;BME280;6149;52.418;13.668;2024-03-22T07:40:37;101192.13;;;9.18;100.00
12172;BME280;6149;52.418;13.668;2024-03-22T07:43:03;101190.28;;;9.20;100.00
12172;BME280;6149;52.418;13.668;2024-03-22T07:45:35;101189.13;;;9.27;100.00
12172;BME280;6149;52.418;13.668;2024-03-22T07:48:01;101185.44;;;9.31;100.00
12172;BME280;6149;52.418;13.668;2024-03-22T07:50:26;101183.25;;;9.42;100.00
12172;BME280;6149;52.418;13.668;2024-03-22T07:52:52;101186.69;;;9.44;100.00
12172;BME280;6149;52.418;13.668;2024-03-22T07:55:18;101184.91;;;9.45;100.00
12172;BME280;6149;52.418;13.668;2024-03-22T07:57:43;101186.75;;;9.43;100.00
12172;BME280;6149;52.418;13.668;2024-03-22T08:00:09;101187.03;;;9.35;100.00
12172;BME280;6149;52.418;13.668;2024-03-22T08:02:35;101188.88;;;9.33;100.00
12172;BME280;6149;52.418;13.668;2024-03-22T08:05:00;101185.09;;;9.40;100.00
12172;BME280;6149;52.418;13.668;2024-03-22T08:07:27;101179.91;;;9.37;100.00
12172;BME280;6149;52.418;13.668;2024-03-22T08:09:53;101174.59;;;9.38;100.00
12172;BME280;6149;52.418;13.668;2024-03-22T08:12:20;101179.69;;;9.43;100.00
12172;BME280;6149;52.418;13.668;2024-03-22T08:14:46;101172.09;;;9.57;100.00
12172;BME280;6149;52.418;13.668;2024-03-22T08:17:11;101175.59;;;9.58;100.00
12172;BME280;6149;52.418;13.668;2024-03-22T08:19:37;101170.38;;;9.56;100.00
12172;BME280;6149;52.418;13.668;2024-03-22T08:22:03;101174.78;;;9.56;100.00
12172;BME280;6149;52.418;13.668;2024-03-22T08:24:29;101166.63;;;9.62;100.00
12172;BME280;6149;52.418;13.668;2024-03-22T08:26:54;101161.81;;;9.71;100.00
12172;BME280;6149;52.418;13.668;2024-03-22T08:29:19;101159.19;;;9.71;100.00
12172;BME280;6149;52.418;13.668;2024-03-22T08:31:45;101151.81;;;9.80;100.00
12172;BME280;6149;52.418;13.668;2024-03-22T08:34:10;101146.69;;;9.97;100.00
12172;BME280;6149;52.418;13.668;2024-03-22T08:36:36;101149.03;;;9.83;100.00
12172;BME280;6149;52.418;13.668;2024-03-22T08:39:01;101152.91;;;9.96;100.00
12172;BME280;6149;52.418;13.668;2024-03-22T08:41:27;101152.91;;;9.96;100.00
12172;BME280;6149;52.418;13.668;2024-03-22T08:43:52;101147.56;;;9.97;100.00
12172;BME280;6149;52.418;13.668;2024-03-22T08:46:17;101154.22;;;10.06;100.00
12172;BME280;6149;52.418;13.668;2024-03-22T08:48:43;101141.53;;;10.14;100.00
12172;BME280;6149;52.418;13.668;2024-03-22T08:51:08;101138.53;;;10.23;100.00
12172;BME280;6149;52.418;13.668;2024-03-22T08:53:34;101140.38;;;10.21;100.00
12172;BME280;6149;52.418;13.668;2024-03-22T08:56:00;101135.03;;;10.23;100.00
12172;BME280;6149;52.418;13.668;2024-03-22T08:58:26;101123.75;;;10.19;100.00
12172;BME280;6149;52.418;13.668;2024-03-22T09:00:51;101114.88;;;10.20;100.00
12172;BME280;6149;52.418;13.668;2024-03-22T09:03:16;101100.47;;;10.27;100.00
12172;BME280;6149;52.418;13.668;2024-03-22T09:05:43;101095.06;;;10.30;100.00
12172;BME280;6149;52.418;13.668;2024-03-22T09:08:08;101090.50;;;10.34;100.00
12172;BME280;6149;52.418;13.668;2024-03-22T09:10:34;101089.28;;;10.41;100.00
12172;BME280;6149;52.418;13.668;2024-03-22T09:12:59;101093.44;;;10.47;100.00
12172;BME280;6149;52.418;13.668;2024-03-22T09:15:25;101089.53;;;10.55;100.00
12172;BME280;6149;52.418;13.668;2024-03-22T09:17:52;101087.69;;;10.57;100.00
12172;BME280;6149;52.418;13.668;2024-03-22T09:20:18;101083.09;;;10.61;100.00
12172;BME280;6149;52.418;13.668;2024-03-22T09:22:43;101079.91;;;10.73;100.00
12172;BME280;6149;52.418;13.668;2024-03-22T09:25:08;101082.91;;;10.65;100.00
12172;BME280;6149;52.418;13.668;2024-03-22T09:27:33;101082.56;;;10.73;100.00
12172;BME280;6149;52.418;13.668;2024-03-22T09:29:59;101069.19;;;10.76;100.00
12172;BME280;6149;52.418;13.668;2024-03-22T09:32:26;101067.31;;;10.78;100.00
12172;BME280;6149;52.418;13.668;2024-03-22T09:34:51;101061.72;;;10.84;100.00
12172;BME280;6149;52.418;13.668;2024-03-22T09:37:17;101057.09;;;10.89;100.00
12172;BME280;6149;52.418;13.668;2024-03-22T09:39:42;101062.22;;;10.92;100.00
12172;BME280;6149;52.418;13.668;2024-03-22T09:42:13;101067.88;;;11.03;100.00
12172;BME280;6149;52.418;13.668;2024-03-22T09:44:46;101056.75;;;11.14;100.00
12172;BME280;6149;52.418;13.668;2024-03-22T09:47:15;101054.47;;;11.25;100.00
12172;BME280;6149;52.418;13.668;2024-03-22T09:49:42;101053.88;;;11.37;100.00
12172;BME280;6149;52.418;13.668;2024-03-22T09:52:12;101053.00;;;11.54;100.00
12172;BME280;6149;52.418;13.668;2024-03-22T09:54:41;101061.56;;;11.78;100.00
12172;BME280;6149;52.418;13.668;2024-03-22T09:57:11;101062.69;;;11.72;100.00
12172;BME280;6149;52.418;13.668;2024-03-22T09:59:41;101061.88;;;11.89;100.00
12172;BME280;6149;52.418;13.668;2024-03-22T10:02:10;101060.31;;;12.02;100.00
12172;BME280;6149;52.418;13.668;2024-03-22T10:04:43;101045.56;;;11.97;100.00
12172;BME280;6149;52.418;13.668;2024-03-22T10:07:08;101047.88;;;11.87;100.00
12172;BME280;6149;52.418;13.668;2024-03-22T10:09:35;101047.75;;;11.89;100.00
12172;BME280;6149;52.418;13.668;2024-03-22T10:12:01;101040.97;;;12.00;100.00
12172;BME280;6149;52.418;13.668;2024-03-22T10:14:26;101035.75;;;11.99;100.00
12172;BME280;6149;52.418;13.668;2024-03-22T10:16:54;101027.63;;;12.02;100.00
12172;BME280;6149;52.418;13.668;2024-03-22T10:19:20;101032.09;;;12.01;100.00
12172;BME280;6149;52.418;13.668;2024-03-22T10:21:47;101041.91;;;11.99;100.00
12172;BME280;6149;52.418;13.668;2024-03-22T10:24:13;101040.91;;;12.02;100.00
12172;BME280;6149;52.418;13.668;2024-03-22T10:26:39;101040.19;;;12.16;100.00
12172;BME280;6149;52.418;13.668;2024-03-22T10:29:08;101032.47;;;12.11;100.00
12172;BME280;6149;52.418;13.668;2024-03-22T10:31:34;101032.63;;;12.08;100.00
12172;BME280;6149;52.418;13.668;2024-03-22T10:34:02;101027.41;;;12.07;100.00
12172;BME280;6149;52.418;13.668;2024-03-22T10:36:29;101030.19;;;12.21;100.00
12172;BME280;6149;52.418;13.668;2024-03-22T10:38:56;101013.44;;;12.20;100.00
12172;BME280;6149;52.418;13.668;2024-03-22T10:41:22;101017.44;;;12.27;100.00
12172;BME280;6149;52.418;13.668;2024-03-22T10:43:48;101020.09;;;12.27;100.00
12172;BME280;6149;52.418;13.668;2024-03-22T10:46:13;101022.25;;;12.36;100.00
12172;BME280;6149;52.418;13.668;2024-03-22T10:48:40;101012.25;;;12.42;100.00
12172;BME280;6149;52.418;13.668;2024-03-22T10:51:06;101002.78;;;12.53;100.00
12172;BME280;6149;52.418;13.668;2024-03-22T10:53:32;100992.63;;;12.61;100.00
12172;BME280;6149;52.418;13.668;2024-03-22T10:55:59;100998.06;;;12.74;100.00
12172;BME280;6149;52.418;13.668;2024-03-22T10:58:26;100992.09;;;12.70;100.00
12172;BME280;6149;52.418;13.668;2024-03-22T11:00:52;100994.81;;;12.69;100.00
12172;BME280;6149;52.418;13.668;2024-03-22T11:03:24;100988.22;;;12.76;100.00
12172;BME280;6149;52.418;13.668;2024-03-22T11:05:56;100987.28;;;12.93;100.00
12172;BME280;6149;52.418;13.668;2024-03-22T11:08:29;100987.09;;;13.12;100.00
12172;BME280;6149;52.418;13.668;2024-03-22T11:11:09;100983.16;;;13.19;100.00
12172;BME280;6149;52.418;13.668;2024-03-22T11:13:41;100978.28;;;13.27;100.00
12172;BME280;6149;52.418;13.668;2024-03-22T11:16:09;100966.53;;;13.31;100.00
12172;BME280;6149;52.418;13.668;2024-03-22T11:18:35;100957.63;;;13.32;100.00
12172;BME280;6149;52.418;13.668;2024-03-22T11:21:00;100956.88;;;13.44;100.00
12172;BME280;6149;52.418;13.668;2024-03-22T11:23:25;100949.56;;;13.48;100.00
12172;BME280;6149;52.418;13.668;2024-03-22T11:25:51;100946.00;;;13.63;100.00
12172;BME280;6149;52.418;13.668;2024-03-22T11:28:16;100945.53;;;13.56;100.00
12172;BME280;6149;52.418;13.668;2024-03-22T11:30:42;100938.22;;;13.74;100.00
12172;BME280;6149;52.418;13.668;2024-03-22T11:33:08;100937.28;;;13.89;100.00
12172;BME280;6149;52.418;13.668;2024-03-22T11:35:33;100928.28;;;13.92;100.00
12172;BME280;6149;52.418;13.668;2024-03-22T11:37:59;100933.03;;;13.87;100.00
12172;BME280;6149;52.418;13.668;2024-03-22T11:40:28;100934.25;;;13.81;100.00
12172;BME280;6149;52.418;13.668;2024-03-22T11:42:56;100927.22;;;13.80;100.00
12172;BME280;6149;52.418;13.668;2024-03-22T11:45:23;100931.78;;;13.78;100.00
12172;BME280;6149;52.418;13.668;2024-03-22T11:47:49;100932.72;;;13.63;100.00
12172;BME280;6149;52.418;13.668;2024-03-22T11:50:15;100926.28;;;13.67;100.00
12172;BME280;6149;52.418;13.668;2024-03-22T11:52:41;100929.88;;;13.80;100.00
12172;BME280;6149;52.418;13.668;2024-03-22T11:55:07;100928.66;;;13.71;100.00
12172;BME280;6149;52.418;13.668;2024-03-22T11:57:33;100921.06;;;13.65;100.00
12172;BME280;6149;52.418;13.668;2024-03-22T11:59:59;100922.59;;;13.69;100.00
12172;BME280;6149;52.418;13.668;2024-03-22T12:02:26;100915.56;;;13.68;100.00
12172;BME280;6149;52.418;13.668;2024-03-22T12:04:51;100909.84;;;13.60;100.00
12172;BME280;6149;52.418;13.668;2024-03-22T12:07:17;100915.44;;;13.56;100.00
12172;BME280;6149;52.418;13.668;2024-03-22T12:09:43;100902.91;;;13.58;100.00
12172;BME280;6149;52.418;13.668;2024-03-22T12:12:11;100899.56;;;13.40;100.00
12172;BME280;6149;52.418;13.668;2024-03-22T12:14:38;100908.47;;;13.25;100.00
12172;BME280;6149;52.418;13.668;2024-03-22T12:17:04;100897.50;;;13.15;100.00
12172;BME280;6149;52.418;13.668;2024-03-22T12:19:30;100896.50;;;13.02;100.00
12172;BME280;6149;52.418;13.668;2024-03-22T12:21:55;100902.88;;;12.99;100.00
12172;BME280;6149;52.418;13.668;2024-03-22T12:24:21;100898.75;;;12.94;100.00
12172;BME280;6149;52.418;13.668;2024-03-22T12:26:47;100897.63;;;12.98;100.00
12172;BME280;6149;52.418;13.668;2024-03-22T12:29:15;100894.91;;;12.84;100.00
12172;BME280;6149;52.418;13.668;2024-03-22T12:31:41;100884.41;;;12.82;100.00
12172;BME280;6149;52.418;13.668;2024-03-22T12:34:07;100888.44;;;12.73;100.00
12172;BME280;6149;52.418;13.668;2024-03-22T12:36:32;100884.00;;;12.58;100.00
12172;BME280;6149;52.418;13.668;2024-03-22T12:38:57;100875.72;;;12.49;100.00
12172;BME280;6149;52.418;13.668;2024-03-22T12:41:23;100873.31;;;12.44;100.00